sensor_id;sensor_type;location;lat;lon;timestamp;P1;durP1;ratioP1;P2;durP2;ratioP2
8331;SDS011;4203;48.144;14.118;2023-08-06T00:01:22;8.30;;;6.55;;
8331;SDS011;4203;48.144;14.118;2023-08-06T00:03:50;7.40;;;6.90;;
8331;SDS011;4203;48.144;14.118;2023-08-06T00:06:17;7.25;;;6.65;;
8331;SDS011;4203;48.144;14.118;2023-08-06T00:08:46;7.07;;;6.55;;
8331;SDS011;4203;48.144;14.118;2023-08-06T00:11:13;7.22;;;6.72;;
8331;SDS011;4203;48.144;14.118;2023-08-06T00:13:40;7.18;;;6.57;;
8331;SDS011;4203;48.144;14.118;2023-08-06T00:16:08;7.35;;;6.72;;
8331;SDS011;4203;48.144;14.118;2023-08-06T00:18:36;7.82;;;6.82;;
8331;SDS011;4203;48.144;14.118;2023-08-06T00:21:03;9.10;;;6.72;;
8331;SDS011;4203;48.144;14.118;2023-08-06T00:23:30;5.80;;;5.40;;
8331;SDS011;4203;48.144;14.118;2023-08-06T00:25:59;6.68;;;6.13;;
8331;SDS011;4203;48.144;14.118;2023-08-06T00:28:26;5.75;;;5.28;;
8331;SDS011;4203;48.144;14.118;2023-08-06T00:30:53;5.38;;;4.90;;
8331;SDS011;4203;48.144;14.118;2023-08-06T00:33:21;6.22;;;5.07;;
8331;SDS011;4203;48.144;14.118;2023-08-06T00:35:51;5.18;;;4.88;;
8331;SDS011;4203;48.144;14.118;2023-08-06T00:38:19;6.03;;;5.28;;
8331;SDS011;4203;48.144;14.118;2023-08-06T00:40:46;6.20;;;5.75;;
8331;SDS011;4203;48.144;14.118;2023-08-06T00:43:15;5.90;;;5.30;;
8331;SDS011;4203;48.144;14.118;2023-08-06T00:45:42;6.00;;;5.47;;
8331;SDS011;4203;48.144;14.118;2023-08-06T00:48:10;5.63;;;5.28;;
8331;SDS011;4203;48.144;14.118;2023-08-06T00:50:37;5.70;;;5.38;;
8331;SDS011;4203;48.144;14.118;2023-08-06T00:53:04;6.18;;;5.68;;
8331;SDS011;4203;48.144;14.118;2023-08-06T00:55:32;5.55;;;5.15;;
8331;SDS011;4203;48.144;14.118;2023-08-06T00:57:59;6.03;;;5.53;;
8331;SDS011;4203;48.144;14.118;2023-08-06T01:00:29;6.68;;;6.18;;
8331;SDS011;4203;48.144;14.118;2023-08-06T01:02:56;5.95;;;5.55;;
8331;SDS011;4203;48.144;14.118;2023-08-06T01:05:24;5.80;;;5.40;;
8331;SDS011;4203;48.144;14.118;2023-08-06T01:07:54;6.28;;;5.88;;
8331;SDS011;4203;48.144;14.118;2023-08-06T01:10:38;5.90;;;5.50;;
8331;SDS011;4203;48.144;14.118;2023-08-06T01:13:16;5.50;;;5.18;;
8331;SDS011;4203;48.144;14.118;2023-08-06T01:15:54;5.47;;;5.10;;
8331;SDS011;4203;48.144;14.118;2023-08-06T01:18:23;5.68;;;5.32;;
8331;SDS011;4203;48.144;14.118;2023-08-06T01:20:52;5.78;;;5.30;;
8331;SDS011;4203;48.144;14.118;2023-08-06T01:23:19;5.13;;;4.82;;
8331;SDS011;4203;48.144;14.118;2023-08-06T01:25:49;5.00;;;4.70;;
8331;SDS011;4203;48.144;14.118;2023-08-06T01:28:27;5.55;;;5.18;;
8331;SDS011;4203;48.144;14.118;2023-08-06T01:31:01;5.22;;;4.93;;
8331;SDS011;4203;48.144;14.118;2023-08-06T01:33:32;4.75;;;4.45;;
8331;SDS011;4203;48.144;14.118;2023-08-06T01:36:02;5.75;;;5.22;;
8331;SDS011;4203;48.144;14.118;2023-08-06T01:38:31;5.20;;;4.80;;
8331;SDS011;4203;48.144;14.118;2023-08-06T01:40:59;5.22;;;4.88;;
8331;SDS011;4203;48.144;14.118;2023-08-06T01:43:26;4.97;;;4.68;;
8331;SDS011;4203;48.144;14.118;2023-08-06T01:45:53;5.03;;;4.72;;
8331;SDS011;4203;48.144;14.118;2023-08-06T01:48:20;4.65;;;4.35;;
8331;SDS011;4203;48.144;14.118;2023-08-06T01:50:47;4.60;;;4.40;;
8331;SDS011;4203;48.144;14.118;2023-08-06T01:53:16;5.55;;;5.15;;
8331;SDS011;4203;48.144;14.118;2023-08-06T01:55:47;5.65;;;5.18;;
8331;SDS011;4203;48.144;14.118;2023-08-06T01:58:15;5.60;;;5.10;;
8331;SDS011;4203;48.144;14.118;2023-08-06T02:00:42;5.85;;;5.45;;
8331;SDS011;4203;48.144;14.118;2023-08-06T02:03:09;5.85;;;5.35;;
8331;SDS011;4203;48.144;14.118;2023-08-06T02:05:37;5.47;;;5.00;;
8331;SDS011;4203;48.144;14.118;2023-08-06T02:08:04;5.68;;;5.28;;
8331;SDS011;4203;48.144;14.118;2023-08-06T02:10:32;5.97;;;5.57;;
8331;SDS011;4203;48.144;14.118;2023-08-06T02:13:00;6.28;;;5.78;;
8331;SDS011;4203;48.144;14.118;2023-08-06T02:15:27;5.28;;;4.97;;
8331;SDS011;4203;48.144;14.118;2023-08-06T02:17:54;5.88;;;5.38;;
8331;SDS011;4203;48.144;14.118;2023-08-06T02:20:22;6.95;;;6.35;;
8331;SDS011;4203;48.144;14.118;2023-08-06T02:22:49;6.25;;;5.65;;
8331;SDS011;4203;48.144;14.118;2023-08-06T02:25:16;7.07;;;6.53;;
8331;SDS011;4203;48.144;14.118;2023-08-06T02:27:45;7.63;;;6.97;;
8331;SDS011;4203;48.144;14.118;2023-08-06T02:30:12;8.57;;;7.75;;
8331;SDS011;4203;48.144;14.118;2023-08-06T02:32:39;8.50;;;7.70;;
8331;SDS011;4203;48.144;14.118;2023-08-06T02:35:07;7.85;;;7.00;;
8331;SDS011;4203;48.144;14.118;2023-08-06T02:37:35;8.45;;;7.65;;
8331;SDS011;4203;48.144;14.118;2023-08-06T02:40:03;9.43;;;8.27;;
8331;SDS011;4203;48.144;14.118;2023-08-06T02:42:31;8.68;;;7.82;;
8331;SDS011;4203;48.144;14.118;2023-08-06T02:44:59;8.82;;;8.07;;
8331;SDS011;4203;48.144;14.118;2023-08-06T02:47:27;7.82;;;7.22;;
8331;SDS011;4203;48.144;14.118;2023-08-06T02:49:54;7.90;;;7.30;;
8331;SDS011;4203;48.144;14.118;2023-08-06T02:52:21;8.43;;;7.68;;
8331;SDS011;4203;48.144;14.118;2023-08-06T02:54:49;7.88;;;7.28;;
8331;SDS011;4203;48.144;14.118;2023-08-06T02:57:16;8.57;;;7.45;;
8331;SDS011;4203;48.144;14.118;2023-08-06T02:59:43;8.00;;;7.38;;
8331;SDS011;4203;48.144;14.118;2023-08-06T03:02:12;8.02;;;7.32;;
8331;SDS011;4203;48.144;14.118;2023-08-06T03:04:39;7.57;;;6.97;;
8331;SDS011;4203;48.144;14.118;2023-08-06T03:07:07;7.30;;;6.70;;
8331;SDS011;4203;48.144;14.118;2023-08-06T03:09:35;7.28;;;6.70;;
8331;SDS011;4203;48.144;14.118;2023-08-06T03:12:02;7.03;;;6.43;;
8331;SDS011;4203;48.144;14.118;2023-08-06T03:14:29;6.72;;;6.13;;
8331;SDS011;4203;48.144;14.118;2023-08-06T03:16:58;6.03;;;5.43;;
8331;SDS011;4203;48.144;14.118;2023-08-06T03:19:27;6.38;;;5.95;;
8331;SDS011;4203;48.144;14.118;2023-08-06T03:21:54;6.50;;;6.00;;
8331;SDS011;4203;48.144;14.118;2023-08-06T03:24:21;5.93;;;5.50;;
8331;SDS011;4203;48.144;14.118;2023-08-06T03:26:48;6.60;;;6.03;;
8331;SDS011;4203;48.144;14.118;2023-08-06T03:29:16;6.40;;;5.90;;
8331;SDS011;4203;48.144;14.118;2023-08-06T03:31:43;6.07;;;5.68;;
8331;SDS011;4203;48.144;14.118;2023-08-06T03:34:10;5.80;;;5.40;;
8331;SDS011;4203;48.144;14.118;2023-08-06T03:36:39;6.05;;;5.43;;
8331;SDS011;4203;48.144;14.118;2023-08-06T03:39:06;6.57;;;6.07;;
8331;SDS011;4203;48.144;14.118;2023-08-06T03:41:39;5.80;;;5.40;;
8331;SDS011;4203;48.144;14.118;2023-08-06T03:44:07;5.93;;;5.53;;
8331;SDS011;4203;48.144;14.118;2023-08-06T03:46:34;5.45;;;5.05;;
8331;SDS011;4203;48.144;14.118;2023-08-06T03:49:01;5.38;;;4.88;;
8331;SDS011;4203;48.144;14.118;2023-08-06T03:51:29;4.78;;;4.45;;
8331;SDS011;4203;48.144;14.118;2023-08-06T03:53:57;4.82;;;4.35;;
8331;SDS011;4203;48.144;14.118;2023-08-06T03:56:24;4.25;;;3.80;;
8331;SDS011;4203;48.144;14.118;2023-08-06T03:58:52;4.18;;;3.85;;
8331;SDS011;4203;48.144;14.118;2023-08-06T04:01:19;3.90;;;3.70;;
8331;SDS011;4203;48.144;14.118;2023-08-06T04:03:46;3.15;;;2.95;;
8331;SDS011;4203;48.144;14.118;2023-08-06T04:06:13;3.15;;;3.05;;
8331;SDS011;4203;48.144;14.118;2023-08-06T04:08:40;3.05;;;2.85;;
8331;SDS011;4203;48.144;14.118;2023-08-06T04:11:09;3.13;;;2.92;;
8331;SDS011;4203;48.144;14.118;2023-08-06T04:13:37;2.70;;;2.50;;
8331;SDS011;4203;48.144;14.118;2023-08-06T04:16:05;3.13;;;2.80;;
8331;SDS011;4203;48.144;14.118;2023-08-06T04:18:32;3.17;;;2.97;;
8331;SDS011;4203;48.144;14.118;2023-08-06T04:20:59;2.63;;;2.53;;
8331;SDS011;4203;48.144;14.118;2023-08-06T04:23:28;2.72;;;2.55;;
8331;SDS011;4203;48.144;14.118;2023-08-06T04:25:56;2.50;;;2.40;;
8331;SDS011;4203;48.144;14.118;2023-08-06T04:28:25;3.17;;;2.80;;
8331;SDS011;4203;48.144;14.118;2023-08-06T04:30:52;2.85;;;2.65;;
8331;SDS011;4203;48.144;14.118;2023-08-06T04:33:19;3.10;;;2.95;;
8331;SDS011;4203;48.144;14.118;2023-08-06T04:35:48;3.30;;;3.10;;
8331;SDS011;4203;48.144;14.118;2023-08-06T04:38:21;2.95;;;2.75;;
8331;SDS011;4203;48.144;14.118;2023-08-06T04:40:49;2.60;;;2.47;;
8331;SDS011;4203;48.144;14.118;2023-08-06T04:43:16;3.10;;;2.78;;
8331;SDS011;4203;48.144;14.118;2023-08-06T04:45:47;3.17;;;2.97;;
8331;SDS011;4203;48.144;14.118;2023-08-06T04:48:14;3.40;;;3.10;;
8331;SDS011;4203;48.144;14.118;2023-08-06T04:50:43;3.90;;;3.42;;
8331;SDS011;4203;48.144;14.118;2023-08-06T04:53:11;3.67;;;3.25;;
8331;SDS011;4203;48.144;14.118;2023-08-06T04:55:37;3.33;;;3.13;;
8331;SDS011;4203;48.144;14.118;2023-08-06T04:58:05;3.42;;;3.13;;
8331;SDS011;4203;48.144;14.118;2023-08-06T05:00:33;3.80;;;3.30;;
8331;SDS011;4203;48.144;14.118;2023-08-06T05:03:02;3.15;;;2.95;;
8331;SDS011;4203;48.144;14.118;2023-08-06T05:05:29;3.42;;;2.97;;
8331;SDS011;4203;48.144;14.118;2023-08-06T05:07:57;3.00;;;2.80;;
8331;SDS011;4203;48.144;14.118;2023-08-06T05:10:24;3.10;;;2.90;;
8331;SDS011;4203;48.144;14.118;2023-08-06T05:12:51;3.50;;;3.30;;
8331;SDS011;4203;48.144;14.118;2023-08-06T05:15:18;3.53;;;3.22;;
8331;SDS011;4203;48.144;14.118;2023-08-06T05:17:46;3.60;;;3.40;;
8331;SDS011;4203;48.144;14.118;2023-08-06T05:20:15;3.50;;;3.20;;
8331;SDS011;4203;48.144;14.118;2023-08-06T05:22:42;3.60;;;3.38;;
8331;SDS011;4203;48.144;14.118;2023-08-06T05:25:12;3.50;;;3.17;;
8331;SDS011;4203;48.144;14.118;2023-08-06T05:27:40;4.15;;;2.90;;
8331;SDS011;4203;48.144;14.118;2023-08-06T05:30:07;3.13;;;2.92;;
8331;SDS011;4203;48.144;14.118;2023-08-06T05:32:35;3.55;;;3.30;;
8331;SDS011;4203;48.144;14.118;2023-08-06T05:35:02;3.42;;;3.13;;
8331;SDS011;4203;48.144;14.118;2023-08-06T05:37:31;3.80;;;3.00;;
8331;SDS011;4203;48.144;14.118;2023-08-06T05:39:59;3.10;;;2.90;;
8331;SDS011;4203;48.144;14.118;2023-08-06T05:42:26;4.53;;;3.03;;
8331;SDS011;4203;48.144;14.118;2023-08-06T05:44:54;3.40;;;3.20;;
8331;SDS011;4203;48.144;14.118;2023-08-06T05:47:21;3.38;;;3.10;;
8331;SDS011;4203;48.144;14.118;2023-08-06T05:49:48;3.75;;;3.55;;
8331;SDS011;4203;48.144;14.118;2023-08-06T05:52:15;3.80;;;3.60;;
8331;SDS011;4203;48.144;14.118;2023-08-06T05:54:44;4.10;;;3.17;;
8331;SDS011;4203;48.144;14.118;2023-08-06T05:57:11;4.13;;;3.88;;
8331;SDS011;4203;48.144;14.118;2023-08-06T05:59:40;3.78;;;3.58;;
8331;SDS011;4203;48.144;14.118;2023-08-06T06:02:07;4.00;;;3.42;;
8331;SDS011;4203;48.144;14.118;2023-08-06T06:04:34;4.28;;;3.47;;
8331;SDS011;4203;48.144;14.118;2023-08-06T06:07:02;3.80;;;3.50;;
8331;SDS011;4203;48.144;14.118;2023-08-06T06:09:29;4.22;;;3.97;;
8331;SDS011;4203;48.144;14.118;2023-08-06T06:11:58;4.15;;;3.92;;
8331;SDS011;4203;48.144;14.118;2023-08-06T06:14:25;3.85;;;3.65;;
8331;SDS011;4203;48.144;14.118;2023-08-06T06:16:52;4.80;;;3.90;;
8331;SDS011;4203;48.144;14.118;2023-08-06T06:19:19;3.63;;;3.40;;
8331;SDS011;4203;48.144;14.118;2023-08-06T06:21:46;4.03;;;3.63;;
8331;SDS011;4203;48.144;14.118;2023-08-06T06:24:14;3.85;;;3.65;;
8331;SDS011;4203;48.144;14.118;2023-08-06T06:26:52;3.70;;;3.50;;
8331;SDS011;4203;48.144;14.118;2023-08-06T06:29:20;4.45;;;4.15;;
8331;SDS011;4203;48.144;14.118;2023-08-06T06:31:48;3.50;;;3.30;;
8331;SDS011;4203;48.144;14.118;2023-08-06T06:34:15;3.85;;;3.65;;
8331;SDS011;4203;48.144;14.118;2023-08-06T06:36:42;3.63;;;3.30;;
8331;SDS011;4203;48.144;14.118;2023-08-06T06:39:09;4.20;;;3.70;;
8331;SDS011;4203;48.144;14.118;2023-08-06T06:41:36;4.13;;;3.83;;
8331;SDS011;4203;48.144;14.118;2023-08-06T06:44:05;3.78;;;3.58;;
8331;SDS011;4203;48.144;14.118;2023-08-06T06:46:42;3.80;;;3.53;;
8331;SDS011;4203;48.144;14.118;2023-08-06T06:49:10;4.60;;;3.70;;
8331;SDS011;4203;48.144;14.118;2023-08-06T06:51:37;4.40;;;4.00;;
8331;SDS011;4203;48.144;14.118;2023-08-06T06:54:04;3.15;;;3.05;;
8331;SDS011;4203;48.144;14.118;2023-08-06T06:56:31;4.00;;;3.70;;
8331;SDS011;4203;48.144;14.118;2023-08-06T06:58:58;4.22;;;3.92;;
8331;SDS011;4203;48.144;14.118;2023-08-06T07:01:25;4.05;;;3.65;;
8331;SDS011;4203;48.144;14.118;2023-08-06T07:03:54;3.33;;;3.22;;
8331;SDS011;4203;48.144;14.118;2023-08-06T07:06:22;3.80;;;3.50;;
8331;SDS011;4203;48.144;14.118;2023-08-06T07:08:49;3.72;;;3.47;;
8331;SDS011;4203;48.144;14.118;2023-08-06T07:11:17;4.18;;;3.83;;
8331;SDS011;4203;48.144;14.118;2023-08-06T07:13:44;4.22;;;3.92;;
8331;SDS011;4203;48.144;14.118;2023-08-06T07:16:20;4.03;;;3.67;;
8331;SDS011;4203;48.144;14.118;2023-08-06T07:18:47;4.18;;;3.78;;
8331;SDS011;4203;48.144;14.118;2023-08-06T07:21:16;3.17;;;2.97;;
8331;SDS011;4203;48.144;14.118;2023-08-06T07:23:43;3.33;;;3.13;;
8331;SDS011;4203;48.144;14.118;2023-08-06T07:26:26;3.05;;;2.85;;
8331;SDS011;4203;48.144;14.118;2023-08-06T07:28:53;3.28;;;3.08;;
8331;SDS011;4203;48.144;14.118;2023-08-06T07:31:21;3.30;;;3.00;;
8331;SDS011;4203;48.144;14.118;2023-08-06T07:33:48;3.78;;;3.35;;
8331;SDS011;4203;48.144;14.118;2023-08-06T07:36:17;3.13;;;2.90;;
8331;SDS011;4203;48.144;14.118;2023-08-06T07:38:44;2.90;;;2.70;;
8331;SDS011;4203;48.144;14.118;2023-08-06T07:41:11;3.20;;;3.00;;
8331;SDS011;4203;48.144;14.118;2023-08-06T07:43:38;4.38;;;3.50;;
8331;SDS011;4203;48.144;14.118;2023-08-06T07:46:09;3.72;;;3.30;;
8331;SDS011;4203;48.144;14.118;2023-08-06T07:48:38;4.00;;;3.67;;
8331;SDS011;4203;48.144;14.118;2023-08-06T07:51:07;3.63;;;3.33;;
8331;SDS011;4203;48.144;14.118;2023-08-06T07:53:39;4.15;;;3.75;;
8331;SDS011;4203;48.144;14.118;2023-08-06T07:58:45;4.90;;;3.40;;
8331;SDS011;4203;48.144;14.118;2023-08-06T08:01:13;3.17;;;2.97;;
8331;SDS011;4203;48.144;14.118;2023-08-06T08:03:44;2.67;;;2.53;;
8331;SDS011;4203;48.144;14.118;2023-08-06T08:06:25;2.42;;;2.33;;
8331;SDS011;4203;48.144;14.118;2023-08-06T08:08:54;2.25;;;2.15;;
8331;SDS011;4203;48.144;14.118;2023-08-06T08:11:21;2.10;;;2.00;;
8331;SDS011;4203;48.144;14.118;2023-08-06T08:13:48;2.85;;;2.60;;
8331;SDS011;4203;48.144;14.118;2023-08-06T08:16:15;4.93;;;3.25;;
8331;SDS011;4203;48.144;14.118;2023-08-06T08:18:43;2.30;;;2.20;;
8331;SDS011;4203;48.144;14.118;2023-08-06T08:21:12;3.13;;;2.60;;
8331;SDS011;4203;48.144;14.118;2023-08-06T08:23:42;2.15;;;2.05;;
8331;SDS011;4203;48.144;14.118;2023-08-06T08:26:11;2.20;;;2.10;;
8331;SDS011;4203;48.144;14.118;2023-08-06T08:28:39;6.03;;;2.13;;
8331;SDS011;4203;48.144;14.118;2023-08-06T08:31:07;2.50;;;2.30;;
8331;SDS011;4203;48.144;14.118;2023-08-06T08:33:36;2.30;;;2.17;;
8331;SDS011;4203;48.144;14.118;2023-08-06T08:36:03;2.97;;;2.17;;
8331;SDS011;4203;48.144;14.118;2023-08-06T08:38:31;2.60;;;2.40;;
8331;SDS011;4203;48.144;14.118;2023-08-06T08:40:58;4.22;;;2.80;;
8331;SDS011;4203;48.144;14.118;2023-08-06T08:43:27;2.38;;;2.28;;
8331;SDS011;4203;48.144;14.118;2023-08-06T08:45:56;3.20;;;2.95;;
8331;SDS011;4203;48.144;14.118;2023-08-06T08:48:25;3.33;;;3.03;;
8331;SDS011;4203;48.144;14.118;2023-08-06T08:50:54;3.40;;;3.20;;
8331;SDS011;4203;48.144;14.118;2023-08-06T08:53:22;3.25;;;3.05;;
8331;SDS011;4203;48.144;14.118;2023-08-06T08:55:49;3.35;;;2.85;;
8331;SDS011;4203;48.144;14.118;2023-08-06T08:58:17;3.20;;;3.00;;
8331;SDS011;4203;48.144;14.118;2023-08-06T09:00:46;3.60;;;2.60;;
8331;SDS011;4203;48.144;14.118;2023-08-06T09:03:14;2.80;;;2.70;;
8331;SDS011;4203;48.144;14.118;2023-08-06T09:05:44;2.90;;;2.80;;
8331;SDS011;4203;48.144;14.118;2023-08-06T09:08:15;3.72;;;2.50;;
8331;SDS011;4203;48.144;14.118;2023-08-06T09:10:44;2.50;;;2.30;;
8331;SDS011;4203;48.144;14.118;2023-08-06T09:13:14;2.67;;;2.53;;
8331;SDS011;4203;48.144;14.118;2023-08-06T09:15:45;2.40;;;2.30;;
8331;SDS011;4203;48.144;14.118;2023-08-06T09:18:14;3.38;;;2.58;;
8331;SDS011;4203;48.144;14.118;2023-08-06T09:20:41;2.95;;;2.13;;
8331;SDS011;4203;48.144;14.118;2023-08-06T09:23:09;3.72;;;2.03;;
8331;SDS011;4203;48.144;14.118;2023-08-06T09:25:37;1.92;;;1.83;;
8331;SDS011;4203;48.144;14.118;2023-08-06T09:28:06;2.20;;;1.80;;
8331;SDS011;4203;48.144;14.118;2023-08-06T09:30:34;1.80;;;1.70;;
8331;SDS011;4203;48.144;14.118;2023-08-06T09:33:04;2.65;;;1.75;;
8331;SDS011;4203;48.144;14.118;2023-08-06T09:35:35;1.83;;;1.73;;
8331;SDS011;4203;48.144;14.118;2023-08-06T09:38:06;1.95;;;1.75;;
8331;SDS011;4203;48.144;14.118;2023-08-06T09:40:34;1.95;;;1.55;;
8331;SDS011;4203;48.144;14.118;2023-08-06T09:43:02;1.98;;;1.50;;
8331;SDS011;4203;48.144;14.118;2023-08-06T09:45:30;1.90;;;1.63;;
8331;SDS011;4203;48.144;14.118;2023-08-06T09:47:59;1.60;;;1.50;;
8331;SDS011;4203;48.144;14.118;2023-08-06T09:50:29;2.22;;;1.67;;
8331;SDS011;4203;48.144;14.118;2023-08-06T09:52:57;1.95;;;1.23;;
8331;SDS011;4203;48.144;14.118;2023-08-06T09:55:25;3.97;;;1.60;;
8331;SDS011;4203;48.144;14.118;2023-08-06T09:57:53;1.63;;;1.52;;
8331;SDS011;4203;48.144;14.118;2023-08-06T10:00:21;1.83;;;1.30;;
8331;SDS011;4203;48.144;14.118;2023-08-06T10:02:48;3.20;;;1.30;;
8331;SDS011;4203;48.144;14.118;2023-08-06T10:05:20;3.67;;;1.77;;
8331;SDS011;4203;48.144;14.118;2023-08-06T10:07:49;1.60;;;1.50;;
8331;SDS011;4203;48.144;14.118;2023-08-06T10:10:17;1.52;;;1.42;;
8331;SDS011;4203;48.144;14.118;2023-08-06T10:12:47;2.05;;;1.50;;
8331;SDS011;4203;48.144;14.118;2023-08-06T10:15:19;1.42;;;1.33;;
8331;SDS011;4203;48.144;14.118;2023-08-06T10:17:50;2.45;;;1.30;;
8331;SDS011;4203;48.144;14.118;2023-08-06T10:20:21;2.40;;;1.40;;
8331;SDS011;4203;48.144;14.118;2023-08-06T10:23:00;1.15;;;1.10;;
8331;SDS011;4203;48.144;14.118;2023-08-06T10:25:30;2.33;;;1.48;;
8331;SDS011;4203;48.144;14.118;2023-08-06T10:27:59;1.90;;;1.08;;
8331;SDS011;4203;48.144;14.118;2023-08-06T10:30:26;1.48;;;1.13;;
8331;SDS011;4203;48.144;14.118;2023-08-06T10:32:55;1.40;;;1.27;;
8331;SDS011;4203;48.144;14.118;2023-08-06T10:35:33;2.20;;;1.13;;
8331;SDS011;4203;48.144;14.118;2023-08-06T10:38:07;2.00;;;1.20;;
8331;SDS011;4203;48.144;14.118;2023-08-06T10:40:35;1.58;;;1.38;;
8331;SDS011;4203;48.144;14.118;2023-08-06T10:43:03;1.35;;;1.23;;
8331;SDS011;4203;48.144;14.118;2023-08-06T10:45:34;1.00;;;1.00;;
8331;SDS011;4203;48.144;14.118;2023-08-06T10:48:01;2.95;;;0.90;;
8331;SDS011;4203;48.144;14.118;2023-08-06T10:50:29;0.93;;;0.93;;
8331;SDS011;4203;48.144;14.118;2023-08-06T10:52:57;0.77;;;0.77;;
8331;SDS011;4203;48.144;14.118;2023-08-06T10:55:31;1.20;;;1.10;;
8331;SDS011;4203;48.144;14.118;2023-08-06T10:57:59;1.63;;;0.70;;
8331;SDS011;4203;48.144;14.118;2023-08-06T11:00:26;0.82;;;0.82;;
8331;SDS011;4203;48.144;14.118;2023-08-06T11:02:53;1.02;;;0.80;;
8331;SDS011;4203;48.144;14.118;2023-08-06T11:05:21;0.70;;;0.70;;
8331;SDS011;4203;48.144;14.118;2023-08-06T11:07:48;0.50;;;0.50;;
8331;SDS011;4203;48.144;14.118;2023-08-06T11:10:16;0.98;;;0.68;;
8331;SDS011;4203;48.144;14.118;2023-08-06T11:12:45;0.70;;;0.63;;
8331;SDS011;4203;48.144;14.118;2023-08-06T11:15:12;0.75;;;0.70;;
8331;SDS011;4203;48.144;14.118;2023-08-06T11:17:39;2.50;;;0.80;;
8331;SDS011;4203;48.144;14.118;2023-08-06T11:20:08;0.50;;;0.50;;
8331;SDS011;4203;48.144;14.118;2023-08-06T11:22:36;2.50;;;0.60;;
8331;SDS011;4203;48.144;14.118;2023-08-06T11:25:05;2.30;;;0.80;;
8331;SDS011;4203;48.144;14.118;2023-08-06T11:27:33;0.52;;;0.52;;
8331;SDS011;4203;48.144;14.118;2023-08-06T11:30:02;0.45;;;0.45;;
8331;SDS011;4203;48.144;14.118;2023-08-06T11:32:29;0.73;;;0.63;;
8331;SDS011;4203;48.144;14.118;2023-08-06T11:34:58;0.57;;;0.57;;
8331;SDS011;4203;48.144;14.118;2023-08-06T11:37:25;0.40;;;0.40;;
8331;SDS011;4203;48.144;14.118;2023-08-06T11:39:53;0.55;;;0.55;;
8331;SDS011;4203;48.144;14.118;2023-08-06T11:42:21;0.60;;;0.60;;
8331;SDS011;4203;48.144;14.118;2023-08-06T11:44:50;3.03;;;0.60;;
8331;SDS011;4203;48.144;14.118;2023-08-06T11:47:18;1.08;;;0.90;;
8331;SDS011;4203;48.144;14.118;2023-08-06T11:49:46;0.60;;;0.60;;
8331;SDS011;4203;48.144;14.118;2023-08-06T11:52:15;2.88;;;0.90;;
8331;SDS011;4203;48.144;14.118;2023-08-06T11:54:44;1.00;;;0.73;;
8331;SDS011;4203;48.144;14.118;2023-08-06T11:57:13;1.95;;;0.70;;
8331;SDS011;4203;48.144;14.118;2023-08-06T11:59:41;0.75;;;0.75;;
8331;SDS011;4203;48.144;14.118;2023-08-06T12:02:09;0.75;;;0.52;;
8331;SDS011;4203;48.144;14.118;2023-08-06T12:07:29;0.60;;;0.60;;
8331;SDS011;4203;48.144;14.118;2023-08-06T12:09:58;1.13;;;0.57;;
8331;SDS011;4203;48.144;14.118;2023-08-06T12:12:26;1.45;;;0.45;;
8331;SDS011;4203;48.144;14.118;2023-08-06T12:14:54;0.40;;;0.40;;
8331;SDS011;4203;48.144;14.118;2023-08-06T12:17:22;1.30;;;0.50;;
8331;SDS011;4203;48.144;14.118;2023-08-06T12:19:49;0.40;;;0.40;;
8331;SDS011;4203;48.144;14.118;2023-08-06T12:22:18;2.20;;;0.50;;
8331;SDS011;4203;48.144;14.118;2023-08-06T12:24:45;0.43;;;0.30;;
8331;SDS011;4203;48.144;14.118;2023-08-06T12:27:13;0.93;;;0.40;;
8331;SDS011;4203;48.144;14.118;2023-08-06T12:29:41;1.58;;;0.40;;
8331;SDS011;4203;48.144;14.118;2023-08-06T12:32:09;0.35;;;0.30;;
8331;SDS011;4203;48.144;14.118;2023-08-06T12:34:37;0.45;;;0.30;;
8331;SDS011;4203;48.144;14.118;2023-08-06T12:37:05;1.25;;;0.50;;
8331;SDS011;4203;48.144;14.118;2023-08-06T12:39:34;1.13;;;0.40;;
8331;SDS011;4203;48.144;14.118;2023-08-06T12:42:02;0.40;;;0.40;;
8331;SDS011;4203;48.144;14.118;2023-08-06T12:44:31;0.25;;;0.25;;
8331;SDS011;4203;48.144;14.118;2023-08-06T12:46:58;1.65;;;0.38;;
8331;SDS011;4203;48.144;14.118;2023-08-06T12:49:26;1.95;;;0.35;;
8331;SDS011;4203;48.144;14.118;2023-08-06T12:51:54;0.30;;;0.30;;
8331;SDS011;4203;48.144;14.118;2023-08-06T12:54:21;0.30;;;0.30;;
8331;SDS011;4203;48.144;14.118;2023-08-06T12:56:50;0.50;;;0.50;;
8331;SDS011;4203;48.144;14.118;2023-08-06T12:59:18;0.73;;;0.70;;
8331;SDS011;4203;48.144;14.118;2023-08-06T13:01:45;0.43;;;0.35;;
8331;SDS011;4203;48.144;14.118;2023-08-06T13:04:13;0.90;;;0.40;;
8331;SDS011;4203;48.144;14.118;2023-08-06T13:06:40;1.17;;;0.40;;
8331;SDS011;4203;48.144;14.118;2023-08-06T13:09:07;1.45;;;0.32;;
8331;SDS011;4203;48.144;14.118;2023-08-06T13:11:35;0.20;;;0.20;;
8331;SDS011;4203;48.144;14.118;2023-08-06T13:14:05;0.73;;;0.25;;
8331;SDS011;4203;48.144;14.118;2023-08-06T13:16:34;0.70;;;0.20;;
8331;SDS011;4203;48.144;14.118;2023-08-06T13:19:02;0.20;;;0.20;;
8331;SDS011;4203;48.144;14.118;2023-08-06T13:21:31;0.20;;;0.20;;
8331;SDS011;4203;48.144;14.118;2023-08-06T13:24:00;0.30;;;0.30;;
8331;SDS011;4203;48.144;14.118;2023-08-06T13:26:27;0.85;;;0.20;;
8331;SDS011;4203;48.144;14.118;2023-08-06T13:28:56;0.15;;;0.15;;
8331;SDS011;4203;48.144;14.118;2023-08-06T13:31:26;0.10;;;0.10;;
8331;SDS011;4203;48.144;14.118;2023-08-06T13:33:54;0.20;;;0.20;;
8331;SDS011;4203;48.144;14.118;2023-08-06T13:36:23;5.22;;;0.32;;
8331;SDS011;4203;48.144;14.118;2023-08-06T13:38:54;0.80;;;0.35;;
8331;SDS011;4203;48.144;14.118;2023-08-06T13:41:21;0.20;;;0.20;;
8331;SDS011;4203;48.144;14.118;2023-08-06T13:43:49;2.25;;;0.35;;
8331;SDS011;4203;48.144;14.118;2023-08-06T13:46:17;0.20;;;0.20;;
8331;SDS011;4203;48.144;14.118;2023-08-06T13:48:47;0.35;;;0.28;;
8331;SDS011;4203;48.144;14.118;2023-08-06T13:51:16;0.30;;;0.30;;
8331;SDS011;4203;48.144;14.118;2023-08-06T13:53:43;0.10;;;0.10;;
8331;SDS011;4203;48.144;14.118;2023-08-06T13:56:11;1.27;;;0.20;;
8331;SDS011;4203;48.144;14.118;2023-08-06T13:58:43;0.30;;;0.30;;
8331;SDS011;4203;48.144;14.118;2023-08-06T14:01:11;0.30;;;0.30;;
8331;SDS011;4203;48.144;14.118;2023-08-06T14:03:39;0.20;;;0.20;;
8331;SDS011;4203;48.144;14.118;2023-08-06T14:06:08;0.75;;;0.30;;
8331;SDS011;4203;48.144;14.118;2023-08-06T14:08:35;0.30;;;0.20;;
8331;SDS011;4203;48.144;14.118;2023-08-06T14:11:05;0.25;;;0.25;;
8331;SDS011;4203;48.144;14.118;2023-08-06T14:13:32;0.30;;;0.30;;
8331;SDS011;4203;48.144;14.118;2023-08-06T14:16:00;0.28;;;0.28;;
8331;SDS011;4203;48.144;14.118;2023-08-06T14:18:28;1.20;;;0.30;;
8331;SDS011;4203;48.144;14.118;2023-08-06T14:20:55;1.23;;;0.20;;
8331;SDS011;4203;48.144;14.118;2023-08-06T14:23:24;0.20;;;0.20;;
8331;SDS011;4203;48.144;14.118;2023-08-06T14:25:51;0.73;;;0.50;;
8331;SDS011;4203;48.144;14.118;2023-08-06T14:28:18;2.40;;;0.20;;
8331;SDS011;4203;48.144;14.118;2023-08-06T14:30:45;0.47;;;0.30;;
8331;SDS011;4203;48.144;14.118;2023-08-06T14:33:12;0.45;;;0.30;;
8331;SDS011;4203;48.144;14.118;2023-08-06T14:35:40;0.50;;;0.20;;
8331;SDS011;4203;48.144;14.118;2023-08-06T14:38:07;0.10;;;0.10;;
8331;SDS011;4203;48.144;14.118;2023-08-06T14:40:35;0.17;;;0.17;;
8331;SDS011;4203;48.144;14.118;2023-08-06T14:43:03;1.88;;;0.30;;
8331;SDS011;4203;48.144;14.118;2023-08-06T14:45:31;5.72;;;0.25;;
8331;SDS011;4203;48.144;14.118;2023-08-06T14:47:58;0.88;;;0.32;;
8331;SDS011;4203;48.144;14.118;2023-08-06T14:50:25;0.30;;;0.30;;
8331;SDS011;4203;48.144;14.118;2023-08-06T14:52:55;0.20;;;0.20;;
8331;SDS011;4203;48.144;14.118;2023-08-06T14:55:26;0.30;;;0.20;;
8331;SDS011;4203;48.144;14.118;2023-08-06T14:57:54;0.20;;;0.20;;
8331;SDS011;4203;48.144;14.118;2023-08-06T15:00:21;0.10;;;0.10;;
8331;SDS011;4203;48.144;14.118;2023-08-06T15:02:49;0.20;;;0.20;;
8331;SDS011;4203;48.144;14.118;2023-08-06T15:05:16;0.93;;;0.20;;
8331;SDS011;4203;48.144;14.118;2023-08-06T15:07:43;0.10;;;0.10;;
8331;SDS011;4203;48.144;14.118;2023-08-06T15:10:10;0.25;;;0.25;;
8331;SDS011;4203;48.144;14.118;2023-08-06T15:12:37;0.10;;;0.10;;